createdAt,value
2023-02-24T00:02:15.247Z,94360.00
2023-02-24T00:04:44.198Z,94761.00
2023-02-24T00:07:14.034Z,94949.00
2023-02-24T00:09:44.701Z,95089.00
2023-02-24T00:12:17.645Z,95256.00
2023-02-24T00:14:47.473Z,94617.00
2023-02-24T00:17:16.300Z,94688.00
2023-02-24T00:19:46.591Z,95011.00
2023-02-24T00:22:15.195Z,95093.00
2023-02-24T00:24:43.740Z,95331.00
2023-02-24T00:27:13.658Z,94798.00
2023-02-24T00:29:42.806Z,95086.00
2023-02-24T00:32:14.880Z,93775.00
2023-02-24T00:34:44.303Z,95175.00
2023-02-24T00:37:15.437Z,94950.00
2023-02-24T00:39:44.450Z,94979.00
2023-02-24T00:42:15.026Z,95001.00
2023-02-24T00:44:47.112Z,94529.00
2023-02-24T00:47:18.018Z,95215.00
2023-02-24T00:49:46.996Z,95194.00
2023-02-24T00:52:18.327Z,95190.00
2023-02-24T00:54:49.280Z,95169.00
2023-02-24T00:57:21.496Z,95216.00
2023-02-24T00:59:51.852Z,94820.00
2023-02-24T01:02:21.514Z,95245.00
2023-02-24T01:04:50.124Z,94893.00
2023-02-24T01:07:18.811Z,95185.00
2023-02-24T01:09:47.661Z,95079.00
2023-02-24T01:12:39.248Z,95137.00
2023-02-24T01:15:12.051Z,95140.00
2023-02-24T01:17:40.813Z,95031.00
2023-02-24T01:20:16.709Z,94741.00
2023-02-24T01:22:47.965Z,95091.00
2023-02-24T01:25:16.862Z,94261.00
2023-02-24T01:27:45.487Z,94243.00
2023-02-24T01:30:17.702Z,94434.00
2023-02-24T01:32:48.228Z,94972.00
2023-02-24T01:35:17.860Z,95195.00
2023-02-24T01:37:46.495Z,95270.00
2023-02-24T01:40:21.616Z,94985.00
2023-02-24T01:42:51.935Z,94964.00
2023-02-24T01:45:28.775Z,95109.00
2023-02-24T01:48:03.656Z,94966.00
2023-02-24T01:50:36.297Z,95241.00
2023-02-24T01:53:08.496Z,95109.00
2023-02-24T01:55:47.055Z,94912.00
2023-02-24T01:58:24.003Z,95151.00
2023-02-24T02:00:54.391Z,94610.00
2023-02-24T02:03:31.070Z,95159.00
2023-02-24T02:06:07.752Z,95106.00
2023-02-24T02:08:40.817Z,95108.00
2023-02-24T02:11:12.528Z,95055.00
2023-02-24T02:13:46.312Z,95169.00
2023-02-24T02:16:54.251Z,95097.00
2023-02-24T02:20:15.567Z,94834.00
2023-02-24T02:23:28.768Z,95095.00
2023-02-24T02:26:22.186Z,95060.00
2023-02-24T02:29:26.625Z,94490.00
2023-02-24T02:32:43.961Z,94770.00
2023-02-24T02:35:20.209Z,94822.00
2023-02-24T02:37:57.169Z,94819.00
2023-02-24T02:40:37.637Z,94902.00
2023-02-24T02:43:17.338Z,94851.00
2023-02-24T02:45:56.059Z,94872.00
2023-02-24T02:48:35.258Z,94964.00
2023-02-24T02:51:11.543Z,95050.00
2023-02-24T02:53:51.291Z,95072.00
2023-02-24T02:56:25.394Z,94784.00
2023-02-24T02:58:57.913Z,94942.00
2023-02-24T03:01:55.560Z,94968.00
2023-02-24T03:04:27.728Z,95067.00
2023-02-24T03:07:03.579Z,95091.00
2023-02-24T03:09:38.310Z,95058.00
2023-02-24T03:12:12.342Z,94897.00
2023-02-24T03:14:51.185Z,94367.00
2023-02-24T03:17:25.909Z,95186.00
2023-02-24T03:20:02.262Z,95118.00
2023-02-24T03:22:40.680Z,95020.00
2023-02-24T03:25:10.766Z,94931.00
2023-02-24T03:27:48.987Z,94948.00
2023-02-24T03:30:23.705Z,93730.00
2023-02-24T03:33:01.799Z,95047.00
2023-02-24T03:35:34.432Z,95040.00
2023-02-24T03:38:06.548Z,94533.00
2023-02-24T03:40:36.189Z,95046.00
2023-02-24T03:43:12.389Z,95119.00
2023-02-24T03:45:43.077Z,95127.00
2023-02-24T03:48:13.377Z,95043.00
2023-02-24T03:50:43.769Z,94291.00
2023-02-24T03:53:33.222Z,94768.00
2023-02-24T03:56:19.805Z,94605.00
2023-02-24T03:59:04.114Z,95099.00
2023-02-24T04:01:46.556Z,94611.00
2023-02-24T04:04:27.555Z,94438.00
2023-02-24T04:07:02.137Z,94882.00
2023-02-24T04:09:44.848Z,94366.00
2023-02-24T04:12:22.497Z,95035.00
2023-02-24T04:14:59.149Z,95085.00
2023-02-24T04:17:39.013Z,94621.00
2023-02-24T04:20:16.721Z,94937.00
2023-02-24T04:22:50.167Z,94775.00
2023-02-24T04:25:25.306Z,94465.00
2023-02-24T04:27:58.393Z,94782.00
2023-02-24T04:30:32.738Z,95006.00
2023-02-24T04:33:01.404Z,95030.00
2023-02-24T04:35:30.159Z,94763.00
2023-02-24T04:37:58.917Z,94744.00
2023-02-24T04:40:29.186Z,94997.00
2023-02-24T04:42:57.793Z,94608.00
2023-02-24T04:45:28.596Z,94856.00
2023-02-24T04:48:02.133Z,95000.00
2023-02-24T04:50:34.290Z,95001.00
2023-02-24T04:53:06.991Z,95001.00
2023-02-24T04:55:41.093Z,94993.00
2023-02-24T04:58:12.637Z,94675.00
2023-02-24T05:00:42.357Z,94999.00
2023-02-24T05:03:13.116Z,94106.00
2023-02-24T05:05:43.042Z,94763.00
2023-02-24T05:08:15.880Z,94868.00
2023-02-24T05:10:48.147Z,94760.00
2023-02-24T05:13:20.530Z,94568.00
2023-02-24T05:15:50.016Z,94909.00
2023-02-24T05:18:20.447Z,94976.00
2023-02-24T05:21:09.133Z,94870.00
2023-02-24T05:23:40.861Z,95041.00
2023-02-24T05:26:12.475Z,94984.00
2023-02-24T05:28:42.934Z,94960.00
2023-02-24T05:31:15.517Z,94775.00
2023-02-24T05:33:46.278Z,95015.00
2023-02-24T05:36:18.348Z,94955.00
2023-02-24T05:38:48.018Z,94781.00
2023-02-24T05:41:20.247Z,94437.00
2023-02-24T05:43:53.199Z,94952.00
2023-02-24T05:46:28.340Z,94952.00
2023-02-24T05:48:58.118Z,94677.00
2023-02-24T05:51:27.837Z,94489.00
2023-02-24T05:53:56.501Z,94781.00
2023-02-24T05:56:27.381Z,94930.00
2023-02-24T05:59:02.288Z,94616.00
2023-02-24T06:01:31.783Z,94953.00
2023-02-24T06:04:05.840Z,94497.00
2023-02-24T06:06:36.610Z,95060.00
2023-02-24T06:09:10.789Z,95062.00
2023-02-24T06:11:42.475Z,94750.00
2023-02-24T06:14:13.325Z,94911.00
2023-02-24T06:16:43.687Z,94918.00
2023-02-24T06:19:15.305Z,94918.00
2023-02-24T06:21:45.799Z,94782.00
2023-02-24T06:24:18.145Z,94760.00
2023-02-24T06:26:50.320Z,94802.00
2023-02-24T06:29:20.745Z,94916.00
2023-02-24T06:31:50.173Z,94916.00
2023-02-24T06:34:19.469Z,94718.00
2023-02-24T06:36:49.152Z,94978.00
2023-02-24T06:39:17.809Z,94589.00
2023-02-24T06:41:52.892Z,94671.00
2023-02-24T06:44:21.381Z,94678.00
2023-02-24T06:46:50.224Z,94694.00
2023-02-24T06:49:19.758Z,94826.00
2023-02-24T06:51:48.713Z,94915.00
2023-02-24T06:54:17.602Z,94769.00
2023-02-24T06:56:47.934Z,94720.00
2023-02-24T06:59:21.852Z,93743.00
2023-02-24T07:01:50.757Z,94669.00
2023-02-24T07:04:20.980Z,94844.00
2023-02-24T07:06:52.579Z,94916.00
2023-02-24T07:09:25.146Z,94914.00
2023-02-24T07:11:56.872Z,94624.00
2023-02-24T07:14:30.770Z,94904.00
2023-02-24T07:17:00.158Z,94784.00
2023-02-24T07:19:32.448Z,94940.00
2023-02-24T07:22:03.852Z,94873.00
2023-02-24T07:24:36.551Z,94987.00
2023-02-24T07:27:09.872Z,94918.00
2023-02-24T07:29:38.855Z,94611.00
2023-02-24T07:32:10.136Z,94890.00
2023-02-24T07:34:40.418Z,94673.00
2023-02-24T07:37:11.407Z,94984.00
2023-02-24T07:39:43.203Z,95011.00
2023-02-24T07:42:13.841Z,94882.00
2023-02-24T07:44:44.627Z,94961.00
2023-02-24T07:47:13.261Z,94730.00
2023-02-24T07:49:41.809Z,94895.00
2023-02-24T07:52:11.712Z,94207.00
2023-02-24T07:54:40.630Z,94879.00
2023-02-24T07:57:14.122Z,95062.00
2023-02-24T07:59:47.249Z,93932.00
2023-02-24T08:02:16.852Z,95016.00
2023-02-24T08:04:51.561Z,94963.00
2023-02-24T08:07:24.968Z,94930.00
2023-02-24T08:10:24.399Z,94819.00
2023-02-24T08:13:03.271Z,94893.00
2023-02-24T08:15:35.063Z,94795.00
2023-02-24T08:18:03.683Z,94901.00
2023-02-24T08:20:52.013Z,94760.00
2023-02-24T08:23:23.632Z,94596.00
2023-02-24T08:25:53.726Z,94582.00
2023-02-24T08:28:26.959Z,94970.00
2023-02-24T08:30:56.999Z,94854.00
2023-02-24T08:33:30.229Z,94854.00
2023-02-24T08:36:02.144Z,94599.00
2023-02-24T08:38:42.210Z,94762.00
2023-02-24T08:41:20.396Z,94830.00
2023-02-24T08:43:50.981Z,94836.00
2023-02-24T08:46:26.734Z,94834.00
2023-02-24T08:49:00.830Z,94834.00
2023-02-24T08:51:34.992Z,94473.00
2023-02-24T08:54:11.177Z,94473.00
2023-02-24T08:56:43.697Z,94739.00
2023-02-24T08:59:29.526Z,94823.00
2023-02-24T09:02:14.598Z,94812.00
2023-02-24T09:04:44.940Z,94195.00
2023-02-24T09:07:18.681Z,94897.00
2023-02-24T09:09:47.409Z,94863.00
2023-02-24T09:12:24.795Z,94594.00
2023-02-24T09:14:56.905Z,94718.00
2023-02-24T09:17:41.190Z,94463.00
2023-02-24T09:20:31.455Z,94807.00
2023-02-24T09:23:03.551Z,94796.00
2023-02-24T09:25:44.798Z,94797.00
2023-02-24T09:28:18.315Z,94794.00
2023-02-24T09:30:54.471Z,94811.00
2023-02-24T09:33:39.006Z,94862.00
2023-02-24T09:36:10.792Z,94670.00
2023-02-24T09:38:59.390Z,94825.00
2023-02-24T09:41:53.580Z,94790.00
2023-02-24T09:44:34.332Z,94479.00
2023-02-24T09:47:15.906Z,94662.00
2023-02-24T09:49:56.415Z,94542.00
2023-02-24T09:52:39.849Z,94809.00
2023-02-24T09:55:25.155Z,94455.00
2023-02-24T09:58:34.827Z,94764.00
2023-02-24T10:01:42.967Z,94440.00
2023-02-24T10:04:49.321Z,94761.00
2023-02-24T10:07:30.111Z,94053.00
2023-02-24T10:10:19.886Z,94619.00
2023-02-24T10:12:58.711Z,94501.00
2023-02-24T10:15:56.888Z,94801.00
2023-02-24T10:18:32.977Z,94661.00
2023-02-24T10:21:18.080Z,94735.00
2023-02-24T10:24:05.666Z,94729.00
2023-02-24T10:26:59.531Z,94757.00
2023-02-24T10:29:45.459Z,94733.00
2023-02-24T10:32:24.722Z,94736.00
2023-02-24T10:34:54.307Z,94437.00
2023-02-24T10:37:29.536Z,94766.00
2023-02-24T10:40:09.861Z,94305.00
2023-02-24T10:42:45.949Z,94717.00
2023-02-24T10:45:23.834Z,94724.00
2023-02-24T10:47:57.753Z,94716.00
2023-02-24T10:50:32.541Z,94717.00
2023-02-24T10:53:26.729Z,94699.00
2023-02-24T10:56:17.504Z,94576.00
2023-02-24T10:58:56.380Z,94492.00
2023-02-24T11:01:43.927Z,94711.00
2023-02-24T11:04:43.880Z,94802.00
2023-02-24T11:07:24.740Z,94694.00
2023-02-24T11:10:13.815Z,94691.00
2023-02-24T11:13:10.544Z,94712.00
2023-02-24T11:16:02.993Z,94453.00
2023-02-24T11:18:32.971Z,94527.00
2023-02-24T11:21:05.193Z,94732.00
2023-02-24T11:23:40.914Z,94711.00
2023-02-24T11:26:18.091Z,94438.00
2023-02-24T11:29:13.672Z,94517.00
2023-02-24T11:31:58.692Z,94540.00
2023-02-24T11:34:38.287Z,94576.00
2023-02-24T11:37:24.374Z,94674.00
2023-02-24T11:40:01.993Z,94667.00
2023-02-24T11:42:38.662Z,94542.00
2023-02-24T11:45:23.864Z,94524.00
2023-02-24T11:47:59.998Z,94592.00
2023-02-24T11:50:39.741Z,94477.00
2023-02-24T11:53:29.166Z,94650.00
2023-02-24T11:56:04.412Z,94414.00
2023-02-24T11:58:45.404Z,94662.00
2023-02-24T12:01:24.427Z,94625.00
2023-02-24T12:04:03.036Z,94658.00
2023-02-24T12:06:40.291Z,94442.00
2023-02-24T12:09:16.193Z,94385.00
2023-02-24T12:11:55.030Z,94611.00
2023-02-24T12:14:34.684Z,94367.00
2023-02-24T12:17:18.510Z,94601.00
2023-02-24T12:20:01.443Z,94597.00
2023-02-24T12:22:44.695Z,94732.00
2023-02-24T12:25:15.228Z,94459.00
2023-02-24T12:28:06.586Z,94608.00
2023-02-24T12:30:57.768Z,94401.00
2023-02-24T12:33:49.293Z,94577.00
2023-02-24T12:36:34.554Z,94608.00
2023-02-24T12:39:16.295Z,94623.00
2023-02-24T12:42:04.223Z,94567.00
2023-02-24T12:44:45.392Z,94562.00
2023-02-24T12:47:18.559Z,94561.00
2023-02-24T12:50:23.714Z,94373.00
2023-02-24T12:53:01.545Z,93999.00
2023-02-24T12:55:40.474Z,94531.00
2023-02-24T12:58:17.081Z,94508.00
2023-02-24T13:01:01.025Z,94509.00
2023-02-24T13:04:00.942Z,94530.00
2023-02-24T13:06:53.037Z,94519.00
2023-02-24T13:09:33.677Z,94399.00
2023-02-24T13:12:11.174Z,94246.00
2023-02-24T13:14:42.895Z,93936.00
2023-02-24T13:17:22.775Z,94507.00
2023-02-24T13:19:53.641Z,94496.00
2023-02-24T13:22:31.468Z,94307.00
2023-02-24T13:25:21.668Z,94410.00
2023-02-24T13:28:01.175Z,94280.00
2023-02-24T13:30:40.519Z,94551.00
2023-02-24T13:33:30.979Z,94474.00
2023-02-24T13:36:14.808Z,94472.00
2023-02-24T13:38:48.183Z,94466.00
2023-02-24T13:41:37.779Z,94500.00
2023-02-24T13:44:28.195Z,94098.00
2023-02-24T13:47:53.826Z,94473.00
2023-02-24T13:50:32.442Z,94384.00
2023-02-24T13:53:24.830Z,94133.00
2023-02-24T13:56:17.522Z,94468.00
2023-02-24T13:59:06.161Z,94462.00
2023-02-24T14:01:49.976Z,94449.00
2023-02-24T14:04:24.483Z,94442.00
2023-02-24T14:06:57.531Z,94444.00
2023-02-24T14:09:33.542Z,94029.00
2023-02-24T14:12:13.795Z,94442.00
2023-02-24T14:14:47.064Z,94298.00
2023-02-24T14:17:28.370Z,94423.00
2023-02-24T14:20:09.832Z,94422.00
2023-02-24T14:22:46.670Z,94090.00
2023-02-24T14:25:16.784Z,94423.00
2023-02-24T14:27:50.135Z,94462.00
2023-02-24T14:30:32.631Z,94448.00
2023-02-24T14:33:02.635Z,94281.00
2023-02-24T14:35:36.068Z,94160.00
2023-02-24T14:38:06.033Z,94339.00
2023-02-24T14:40:35.199Z,94323.00
2023-02-24T14:43:15.252Z,94401.00
2023-02-24T14:45:50.561Z,94360.00
2023-02-24T14:48:26.646Z,94404.00
2023-02-24T14:50:59.664Z,94329.00
2023-02-24T14:53:32.217Z,94324.00
2023-02-24T14:56:06.102Z,94372.00
2023-02-24T14:58:45.437Z,94381.00
2023-02-24T15:01:24.137Z,94242.00
2023-02-24T15:03:58.220Z,94381.00
2023-02-24T15:06:33.163Z,94213.00
2023-02-24T15:09:13.317Z,93784.00
2023-02-24T15:11:41.938Z,94366.00
2023-02-24T15:14:25.675Z,94239.00
2023-02-24T15:16:58.005Z,94347.00
2023-02-24T15:19:32.417Z,94343.00
2023-02-24T15:22:01.565Z,94197.00
2023-02-24T15:24:32.423Z,94228.00
2023-02-24T15:27:03.654Z,94263.00
2023-02-24T15:29:33.597Z,94336.00
2023-02-24T15:32:07.263Z,93820.00
2023-02-24T15:34:38.034Z,94344.00
2023-02-24T15:37:17.544Z,94331.00
2023-02-24T15:39:46.515Z,93901.00
2023-02-24T15:42:28.383Z,94054.00
2023-02-24T15:45:00.848Z,94371.00
2023-02-24T15:47:32.538Z,94359.00
2023-02-24T15:50:01.191Z,93517.00
2023-02-24T15:52:31.115Z,94346.00
2023-02-24T15:55:02.530Z,94319.00
2023-02-24T15:57:33.496Z,93946.00
2023-02-24T16:00:08.998Z,94312.00
2023-02-24T16:02:37.455Z,94086.00
2023-02-24T16:05:06.642Z,94343.00
2023-02-24T16:07:39.086Z,94298.00
2023-02-24T16:10:09.886Z,94207.00
2023-02-24T16:12:47.337Z,93705.00
2023-02-24T16:15:25.021Z,94358.00
2023-02-24T16:17:54.127Z,94186.00
2023-02-24T16:20:28.590Z,94341.00
2023-02-24T16:22:58.513Z,94344.00
2023-02-24T16:25:29.556Z,94293.00
2023-02-24T16:27:58.323Z,93641.00
2023-02-24T16:30:31.556Z,94295.00
2023-02-24T16:33:02.319Z,94287.00
2023-02-24T16:35:30.881Z,94045.00
2023-02-24T16:38:00.428Z,94284.00
2023-02-24T16:40:31.944Z,93977.00
2023-02-24T16:43:00.712Z,94299.00
2023-02-24T16:45:31.844Z,94323.00
2023-02-24T16:48:03.150Z,93709.00
2023-02-24T16:50:36.162Z,94163.00
2023-02-24T16:53:04.613Z,94298.00
2023-02-24T16:55:33.123Z,94300.00
2023-02-24T16:58:01.601Z,94297.00
2023-02-24T17:00:31.562Z,94290.00
2023-02-24T17:03:01.051Z,93562.00
2023-02-24T17:05:29.740Z,94293.00
2023-02-24T17:07:58.967Z,94168.00
2023-02-24T17:10:28.051Z,94251.00
2023-02-24T17:12:56.537Z,94199.00
2023-02-24T17:15:27.702Z,94302.00
2023-02-24T17:17:58.302Z,94311.00
2023-02-24T17:20:26.791Z,94035.00
2023-02-24T17:22:55.305Z,94051.00
2023-02-24T17:25:28.341Z,93857.00
2023-02-24T17:27:58.888Z,94295.00
2023-02-24T17:30:31.716Z,93643.00
2023-02-24T17:33:02.326Z,94303.00
2023-02-24T17:35:31.278Z,94195.00
2023-02-24T17:37:59.779Z,94013.00
2023-02-24T17:40:28.363Z,94254.00
2023-02-24T17:42:56.733Z,93883.00
2023-02-24T17:45:25.205Z,94097.00
2023-02-24T17:47:53.829Z,94297.00
2023-02-24T17:50:23.938Z,94304.00
2023-02-24T17:52:52.493Z,93900.00
2023-02-24T17:55:21.050Z,93769.00
2023-02-24T17:57:49.513Z,94306.00
2023-02-24T18:00:19.171Z,94312.00
2023-02-24T18:02:47.704Z,94053.00
2023-02-24T18:05:16.226Z,94292.00
2023-02-24T18:07:46.144Z,94288.00
2023-02-24T18:10:15.050Z,94285.00
2023-02-24T18:12:43.690Z,94176.00
2023-02-24T18:15:14.401Z,94329.00
2023-02-24T18:17:42.876Z,94025.00
2023-02-24T18:20:14.267Z,93982.00
2023-02-24T18:22:42.926Z,93496.00
2023-02-24T18:25:13.720Z,93469.00
2023-02-24T18:27:42.337Z,94290.00
2023-02-24T18:30:13.286Z,94484.00
2023-02-24T18:32:44.646Z,93375.00
2023-02-24T18:35:14.444Z,94272.00
2023-02-24T18:37:43.741Z,94491.00
2023-02-24T18:40:14.923Z,93610.00
2023-02-24T18:42:43.955Z,94354.00
2023-02-24T18:45:12.789Z,94385.00
2023-02-24T18:47:41.342Z,93856.00
2023-02-24T18:50:11.761Z,93888.00
2023-02-24T18:52:40.338Z,93744.00
2023-02-24T18:55:10.238Z,93764.00
2023-02-24T18:57:40.427Z,94112.00
2023-02-24T19:00:13.979Z,93315.00
2023-02-24T19:02:42.870Z,94373.00
2023-02-24T19:05:12.502Z,93881.00
2023-02-24T19:07:41.080Z,94460.00
2023-02-24T19:10:11.426Z,94366.00
2023-02-24T19:12:41.320Z,94120.00
2023-02-24T19:15:11.417Z,94171.00
2023-02-24T19:17:40.148Z,94109.00
2023-02-24T19:20:11.277Z,93112.00
2023-02-24T19:22:39.881Z,93323.00
2023-02-24T19:25:09.449Z,93414.00
2023-02-24T19:27:38.011Z,93168.00
2023-02-24T19:30:10.309Z,93696.00
2023-02-24T19:32:41.691Z,94229.00
2023-02-24T19:35:10.634Z,93098.00
2023-02-24T19:37:39.316Z,93373.00
2023-02-24T19:40:09.801Z,93577.00
2023-02-24T19:42:38.461Z,93512.00
2023-02-24T19:45:10.682Z,93460.00
2023-02-24T19:47:42.788Z,93610.00
2023-02-24T19:50:13.421Z,92830.00
2023-02-24T19:52:42.931Z,93993.00
2023-02-24T19:55:13.406Z,94347.00
2023-02-24T19:57:42.106Z,94207.00
2023-02-24T20:00:14.049Z,93307.00
2023-02-24T20:02:42.651Z,93593.00
2023-02-24T20:05:11.559Z,93780.00
2023-02-24T20:07:40.286Z,94022.00
2023-02-24T20:10:10.442Z,94311.00
2023-02-24T20:12:39.965Z,94388.00
2023-02-24T20:15:12.038Z,93096.00
2023-02-24T20:17:40.703Z,93442.00
2023-02-24T20:20:13.192Z,94131.00
2023-02-24T20:22:41.884Z,93960.00
2023-02-24T20:25:12.660Z,94234.00
2023-02-24T20:27:41.378Z,94207.00
2023-02-24T20:30:13.855Z,94323.00
2023-02-24T20:32:42.644Z,94147.00
2023-02-24T20:35:11.732Z,93117.00
2023-02-24T20:37:40.340Z,94107.00
2023-02-24T20:40:12.566Z,93932.00
2023-02-24T20:42:41.217Z,94003.00
2023-02-24T20:45:12.720Z,94405.00
2023-02-24T20:47:41.348Z,94363.00
2023-02-24T20:50:11.029Z,93904.00
2023-02-24T20:52:40.097Z,94070.00
2023-02-24T20:55:09.525Z,94294.00
2023-02-24T20:57:38.009Z,94085.00
2023-02-24T21:00:08.323Z,94082.00
2023-02-24T21:02:41.228Z,94108.00
2023-02-24T21:05:10.478Z,93726.00
2023-02-24T21:07:39.233Z,94086.00
2023-02-24T21:10:08.562Z,93962.00
2023-02-24T21:12:37.101Z,94148.00
2023-02-24T21:15:06.992Z,94202.00
2023-02-24T21:17:35.682Z,94215.00
2023-02-24T21:20:06.815Z,94355.00
2023-02-24T21:22:35.348Z,94325.00
2023-02-24T21:25:03.910Z,94129.00
2023-02-24T21:27:32.589Z,93971.00
2023-02-24T21:30:01.165Z,93973.00
2023-02-24T21:32:29.719Z,93795.00
2023-02-24T21:34:58.862Z,94323.00
2023-02-24T21:37:29.140Z,94292.00
2023-02-24T21:39:57.676Z,94068.00
2023-02-24T21:42:27.795Z,94299.00
2023-02-24T21:45:02.476Z,94061.00
2023-02-24T21:47:32.295Z,94183.00
2023-02-24T21:50:00.873Z,93791.00
2023-02-24T21:52:31.811Z,94294.00
2023-02-24T21:55:00.324Z,94453.00
2023-02-24T21:57:28.982Z,94060.00
2023-02-24T21:59:57.967Z,93451.00
2023-02-24T22:02:26.940Z,94246.00
2023-02-24T22:04:55.501Z,94319.00
2023-02-24T22:07:24.026Z,94098.00
2023-02-24T22:09:53.971Z,94152.00
2023-02-24T22:12:22.529Z,94407.00
2023-02-24T22:14:51.162Z,94339.00
2023-02-24T22:17:19.667Z,92843.00
2023-02-24T22:19:48.357Z,94482.00
2023-02-24T22:22:16.963Z,93630.00
2023-02-24T22:24:45.546Z,93846.00
2023-02-24T22:27:19.654Z,93682.00
2023-02-24T22:29:48.568Z,94141.00
2023-02-24T22:32:18.340Z,94447.00
2023-02-24T22:34:47.068Z,94492.00
2023-02-24T22:37:16.792Z,94363.00
2023-02-24T22:39:45.379Z,93955.00
2023-02-24T22:42:15.316Z,93286.00
2023-02-24T22:44:44.082Z,93658.00
2023-02-24T22:47:12.732Z,94432.00
2023-02-24T22:49:41.312Z,94022.00
2023-02-24T22:52:11.733Z,94288.00
2023-02-24T22:54:40.341Z,93642.00
2023-02-24T22:57:08.945Z,94028.00
2023-02-24T22:59:39.398Z,94550.00
2023-02-24T23:02:09.525Z,94067.00
2023-02-24T23:04:38.298Z,93976.00
2023-02-24T23:07:06.876Z,94269.00
2023-02-24T23:09:36.265Z,93498.00
2023-02-24T23:12:05.529Z,94531.00
2023-02-24T23:14:34.114Z,94452.00
2023-02-24T23:17:05.011Z,94311.00
2023-02-24T23:19:34.155Z,94484.00
2023-02-24T23:22:03.222Z,94458.00
2023-02-24T23:24:31.854Z,93403.00
2023-02-24T23:27:01.699Z,93020.00
2023-02-24T23:29:31.650Z,94419.00
2023-02-24T23:32:00.414Z,93896.00
2023-02-24T23:34:30.709Z,94072.00
2023-02-24T23:36:59.306Z,94607.00
2023-02-24T23:39:27.879Z,94111.00
2023-02-24T23:41:57.846Z,94081.00
2023-02-24T23:44:26.658Z,93897.00
2023-02-24T23:46:58.252Z,94515.00
2023-02-24T23:49:36.149Z,94276.00
2023-02-24T23:52:12.603Z,93694.00
2023-02-24T23:54:41.088Z,94737.00
2023-02-24T23:57:11.723Z,94631.00
2023-02-24T23:59:40.488Z,93969.00
